タヒチ島 の空港の天気 - METARとTAF

タヒチ・ファアア国際空港 ( NTAA / PPT ) - フランス領ポリネシア タヒチ島
飛行場実況気象(Metar)
観測時間08/07 16:30 TAHT (08/08 02:30 UTC)
風向・風速東北東 6m/s
視程10km以上
天気現象
少しの雲 雲底高度 850m
全天の4割程度の雲 雲底高度 2530m
気温28℃
湿度62%
気圧1014hPa
METARNTAA 080230Z 06011KT 9999 FEW028 SCT083 28/20 Q1014 NOSIG
過去の天気等 Google飛行場航空写真 Wunderground天気予報

過去48時間のMETAR

飛行場予報(TAF)
発表時間: 8/07 13:00 TAHT (8/07 23:00 UTC)
予報対象時間: 7日14時 TAHT ~ 8日20時 TAHT
風向・風速北東 8m/s 瞬間風速 13m/s
視程10km以上
少しの雲 雲底高度 700m
7日19時 TAHT ~ 7日21時 TAHT に徐々に
風向・風速不定 3m/s
8日9時 TAHT ~ 8日11時 TAHT に徐々に
風向・風速東北東 10m/s 瞬間風速 15m/s
TAF NTAA 072300Z 0800/0906 04015G25KT 9999 FEW023
BECMG 0805/0807 VRB05KT
BECMG 0819/0821 06020G30KT